Celebrity Equinox — 9HXD9 — position and weather

sailwx.info

Track history (hours):
 
Tides and Currents Weather Stations Pressure Air Temp Water Temp Dewpoint Dewpoint Depression Visibility Wind Speed Wind Dir Waves Ship Positions

Celebrity Equinox

Last reported at 2015-Sep-05 04:34 UTC. Time now 2015-Sep-05 05:40 UTC.
Position N 43°39' E 007°27'.

Length 316 m.

Type: Ship. MMSI: 249667000.

Date/timePositionNaut miles runAvg speedWind from/ knotsBaromVisibWave heightAir tempDewpointWater temp
2015-Sep-05 04:34N 43°39' E 007°27'6012.0
2015-Sep-04 23:33N 43°35' E 008°50'1110.7
2015-Sep-04 22:34N 43°35' E 009°05'1110.6
2015-Sep-04 21:34N 43°33' E 009°19'1110.7
2015-Sep-04 20:34N 43°32' E 009°34'1110.6
2015-Sep-04 19:34N 43°32' E 009°48'1010.1
2015-Sep-04 18:34N 43°30' E 010°02'10 9.6
2015-Sep-04 17:34N 43°32' E 010°15'2 2.2
2015-Sep-04 16:33N 43°33' E 010°18'0 0.0
2015-Sep-04 15:33N 43°33' E 010°18'0 0.0
2015-Sep-04 14:32N 43°33' E 010°18'0 0.0
2015-Sep-04 13:29N 43°33' E 010°18'0 0.0
2015-Sep-04 12:31N 43°33' E 010°18'0 0.0
2015-Sep-04 11:31N 43°33' E 010°18'0 0.0
2015-Sep-04 10:30N 43°33' E 010°18'0 0.0
2015-Sep-04 09:33N 43°33' E 010°18'0 0.0
2015-Sep-04 08:33N 43°33' E 010°18'0 0.0
2015-Sep-04 07:32N 43°33' E 010°18'0 0.0
2015-Sep-04 06:32N 43°33' E 010°18'0 0.0
2015-Sep-04 05:33N 43°33' E 010°18'0 0.2
2015-Sep-04 04:33N 43°33' E 010°18'9 8.7
2015-Sep-04 03:33N 43°26' E 010°11'1615.9
2015-Sep-04 02:33N 43°10' E 010°07'116 4.7
2015-Sep-03 02:12N 41°43' E 011°50'4215.8
2015-Sep-02 23:33N 41°11' E 012°25'1615.9
2015-Sep-02 22:33N 40°60' E 012°39'3515.8
2015-Sep-02 20:22N 40°34' E 013°10'1316.0
2015-Sep-02 19:33N 40°26' E 013°23'1616.0
2015-Sep-02 18:33N 40°15' E 013°38'1615.9
2015-Sep-02 17:33N 40°04' E 013°53'1816.0
2015-Sep-02 16:28N 39°52' E 014°10'1715.9
2015-Sep-02 15:25N 39°40' E 014°25'2115.6
2015-Sep-02 14:06N 39°26' E 014°45'2515.4
2015-Sep-02 12:27N 39°09' E 015°09'4615.4
2015-Sep-02 09:28N 38°28' E 015°38'1314.5
2015-Sep-02 08:34N 38°16' E 015°42'1414.1
2015-Sep-02 07:33N 38°02' E 015°36'1313.2
2015-Sep-02 06:32N 37°52' E 015°46'2115.6
2015-Sep-02 05:12N 37°54' E 016°13'9115.8
2015-Sep-01 23:25N 38°32' E 017°58'202 7.3
2015-Aug-31 19:33N 41°53' E 018°25'1817.8
2015-Aug-31 18:33N 42°09' E 018°17'1817.7
2015-Aug-31 17:31N 42°26' E 018°08'16 1.0
2015-Aug-31 00:27N 42°11' E 018°00'24 6.2
2015-Aug-30 20:33N 42°09' E 018°33'8 8.3
2015-Aug-30 19:33N 42°17' E 018°33'9 8.9
2015-Aug-30 18:33N 42°26' E 018°32'8 7.7
2015-Aug-30 17:33N 42°29' E 018°42'4 4.0
2015-Aug-30 16:33N 42°26' E 018°46'0 0.0
2015-Aug-30 15:33N 42°26' E 018°46'0 0.0
2015-Aug-30 14:30N 42°26' E 018°46'0 0.0
2015-Aug-30 13:32N 42°26' E 018°46'0 0.0
2015-Aug-30 12:32N 42°26' E 018°46'0 0.0
2015-Aug-30 11:31N 42°26' E 018°46'0 0.0
2015-Aug-30 10:31N 42°26' E 018°46'0 0.0
2015-Aug-30 09:33N 42°26' E 018°46'0 0.0
2015-Aug-30 08:33N 42°26' E 018°46'0 0.0
2015-Aug-30 07:30N 42°26' E 018°46'0 0.1
2015-Aug-30 06:33N 42°26' E 018°46'6 5.7
2015-Aug-30 05:33N 42°26' E 018°38'8 7.9
2015-Aug-30 04:34N 42°19' E 018°33'1716.7
2015-Aug-30 03:34N 42°02' E 018°35'1717.0
2015-Aug-30 02:34N 41°46' E 018°39'36613.4
2015-Aug-28 23:20N 37°02' E 023°38'1418.2
2015-Aug-28 22:33N 37°16' E 023°42'1817.6
2015-Aug-28 21:33N 37°33' E 023°43'1817.5
2015-Aug-28 20:33N 37°50' E 023°37'6 6.0
2015-Aug-28 19:32N 37°56' E 023°37'0 0.0
2015-Aug-28 18:31N 37°56' E 023°37'0 0.0
2015-Aug-28 17:31N 37°56' E 023°37'0 0.0
2015-Aug-28 16:28N 37°56' E 023°37'0 0.0
2015-Aug-28 15:33N 37°56' E 023°37'0 0.0
2015-Aug-28 14:33N 37°56' E 023°37'0 0.0
2015-Aug-28 13:29N 37°56' E 023°37'0 0.0
2015-Aug-28 12:32N 37°56' E 023°37'0 0.0
2015-Aug-28 11:31N 37°56' E 023°37'0 0.0
2015-Aug-28 10:31N 37°56' E 023°37'0 0.0
2015-Aug-28 09:31N 37°56' E 023°37'0 0.0
2015-Aug-28 08:33N 37°56' E 023°37'0 0.0
2015-Aug-28 07:33N 37°56' E 023°37'0 0.0
2015-Aug-28 06:32N 37°56' E 023°37'0 0.0
2015-Aug-28 05:32N 37°56' E 023°37'0 0.0
2015-Aug-28 04:31N 37°56' E 023°37'0 0.3
2015-Aug-28 03:34N 37°56' E 023°37'7 6.6
2015-Aug-28 02:33N 37°50' E 023°40'1515.1
2015-Aug-28 01:33N 37°38' E 023°51'4611.4
2015-Aug-27 21:33N 37°32' E 024°48'1110.9
2015-Aug-27 20:33N 37°31' E 025°02'1010.2
2015-Aug-27 19:33N 37°28' E 025°14'4 3.9
2015-Aug-27 18:32N 37°28' E 025°19'0 0.0
2015-Aug-27 17:32N 37°28' E 025°19'0 0.0
2015-Aug-27 16:31N 37°28' E 025°19'0 0.0
2015-Aug-27 15:31N 37°28' E 025°19'0 0.0
2015-Aug-27 14:33N 37°28' E 025°19'0 0.0
2015-Aug-27 13:33N 37°28' E 025°19'0 0.0
2015-Aug-27 12:32N 37°28' E 025°19'0 0.0
2015-Aug-27 11:32N 37°28' E 025°19'0 0.0
2015-Aug-27 10:32N 37°28' E 025°19'0 0.0
2015-Aug-27 09:31N 37°28' E 025°19'0 0.0
2015-Aug-27 08:31N 37°28' E 025°19'0 0.0
2015-Aug-27 07:33N 37°28' E 025°19'0 0.0
2015-Aug-27 06:33N 37°28' E 025°19'0 0.0
2015-Aug-27 05:32N 37°28' E 025°19'0 0.0
2015-Aug-27 04:32N 37°28' E 025°19'0 0.0
2015-Aug-27 03:32N 37°28' E 025°19'3 3.2
2015-Aug-27 02:33N 37°31' E 025°19'1010.3
2015-Aug-27 01:33N 37°37' E 025°30'1010.2
2015-Aug-27 00:34N 37°42' E 025°41'  
Track history (hours):
 
Tides and Currents Weather Stations Pressure Air Temp Water Temp Dewpoint Dewpoint Depression Visibility Wind Speed Wind Dir Waves Ship Positions

Celebrity Equinox

Last reported at 2015-Sep-05 04:34 UTC. Time now 2015-Sep-05 05:40 UTC.
Position N 43°39' E 007°27'.

Length 316 m.

Type: Ship. MMSI: 249667000.

Date/timePositionNaut miles runAvg speedWind from/ knotsBaromVisibWave heightAir tempDewpointWater temp
2015-Sep-05 04:34N 43°39' E 007°27'6012.0
2015-Sep-04 23:33N 43°35' E 008°50'1110.7
2015-Sep-04 22:34N 43°35' E 009°05'1110.6
2015-Sep-04 21:34N 43°33' E 009°19'1110.7
2015-Sep-04 20:34N 43°32' E 009°34'1110.6
2015-Sep-04 19:34N 43°32' E 009°48'1010.1
2015-Sep-04 18:34N 43°30' E 010°02'10 9.6
2015-Sep-04 17:34N 43°32' E 010°15'2 2.2
2015-Sep-04 16:33N 43°33' E 010°18'0 0.0
2015-Sep-04 15:33N 43°33' E 010°18'0 0.0
2015-Sep-04 14:32N 43°33' E 010°18'0 0.0
2015-Sep-04 13:29N 43°33' E 010°18'0 0.0
2015-Sep-04 12:31N 43°33' E 010°18'0 0.0
2015-Sep-04 11:31N 43°33' E 010°18'0 0.0
2015-Sep-04 10:30N 43°33' E 010°18'0 0.0
2015-Sep-04 09:33N 43°33' E 010°18'0 0.0
2015-Sep-04 08:33N 43°33' E 010°18'0 0.0
2015-Sep-04 07:32N 43°33' E 010°18'0 0.0
2015-Sep-04 06:32N 43°33' E 010°18'0 0.0
2015-Sep-04 05:33N 43°33' E 010°18'0 0.2
2015-Sep-04 04:33N 43°33' E 010°18'9 8.7
2015-Sep-04 03:33N 43°26' E 010°11'1615.9
2015-Sep-04 02:33N 43°10' E 010°07'116 4.7
2015-Sep-03 02:12N 41°43' E 011°50'4215.8
2015-Sep-02 23:33N 41°11' E 012°25'1615.9
2015-Sep-02 22:33N 40°60' E 012°39'3515.8
2015-Sep-02 20:22N 40°34' E 013°10'1316.0
2015-Sep-02 19:33N 40°26' E 013°23'1616.0
2015-Sep-02 18:33N 40°15' E 013°38'1615.9
2015-Sep-02 17:33N 40°04' E 013°53'1816.0
2015-Sep-02 16:28N 39°52' E 014°10'1715.9
2015-Sep-02 15:25N 39°40' E 014°25'2115.6
2015-Sep-02 14:06N 39°26' E 014°45'2515.4
2015-Sep-02 12:27N 39°09' E 015°09'4615.4
2015-Sep-02 09:28N 38°28' E 015°38'1314.5
2015-Sep-02 08:34N 38°16' E 015°42'1414.1
2015-Sep-02 07:33N 38°02' E 015°36'1313.2
2015-Sep-02 06:32N 37°52' E 015°46'2115.6
2015-Sep-02 05:12N 37°54' E 016°13'9115.8
2015-Sep-01 23:25N 38°32' E 017°58'202 7.3
2015-Aug-31 19:33N 41°53' E 018°25'1817.8
2015-Aug-31 18:33N 42°09' E 018°17'1817.7
2015-Aug-31 17:31N 42°26' E 018°08'16 1.0
2015-Aug-31 00:27N 42°11' E 018°00'24 6.2
2015-Aug-30 20:33N 42°09' E 018°33'8 8.3
2015-Aug-30 19:33N 42°17' E 018°33'9 8.9
2015-Aug-30 18:33N 42°26' E 018°32'8 7.7
2015-Aug-30 17:33N 42°29' E 018°42'4 4.0
2015-Aug-30 16:33N 42°26' E 018°46'0 0.0
2015-Aug-30 15:33N 42°26' E 018°46'0 0.0
2015-Aug-30 14:30N 42°26' E 018°46'0 0.0
2015-Aug-30 13:32N 42°26' E 018°46'0 0.0
2015-Aug-30 12:32N 42°26' E 018°46'0 0.0
2015-Aug-30 11:31N 42°26' E 018°46'0 0.0
2015-Aug-30 10:31N 42°26' E 018°46'0 0.0
2015-Aug-30 09:33N 42°26' E 018°46'0 0.0
2015-Aug-30 08:33N 42°26' E 018°46'0 0.0
2015-Aug-30 07:30N 42°26' E 018°46'0 0.1
2015-Aug-30 06:33N 42°26' E 018°46'6 5.7
2015-Aug-30 05:33N 42°26' E 018°38'8 7.9
2015-Aug-30 04:34N 42°19' E 018°33'1716.7
2015-Aug-30 03:34N 42°02' E 018°35'1717.0
2015-Aug-30 02:34N 41°46' E 018°39'36613.4
2015-Aug-28 23:20N 37°02' E 023°38'1418.2
2015-Aug-28 22:33N 37°16' E 023°42'1817.6
2015-Aug-28 21:33N 37°33' E 023°43'1817.5
2015-Aug-28 20:33N 37°50' E 023°37'6 6.0
2015-Aug-28 19:32N 37°56' E 023°37'0 0.0
2015-Aug-28 18:31N 37°56' E 023°37'0 0.0
2015-Aug-28 17:31N 37°56' E 023°37'0 0.0
2015-Aug-28 16:28N 37°56' E 023°37'0 0.0
2015-Aug-28 15:33N 37°56' E 023°37'0 0.0
2015-Aug-28 14:33N 37°56' E 023°37'0 0.0
2015-Aug-28 13:29N 37°56' E 023°37'0 0.0
2015-Aug-28 12:32N 37°56' E 023°37'0 0.0
2015-Aug-28 11:31N 37°56' E 023°37'0 0.0
2015-Aug-28 10:31N 37°56' E 023°37'0 0.0
2015-Aug-28 09:31N 37°56' E 023°37'0 0.0
2015-Aug-28 08:33N 37°56' E 023°37'0 0.0
2015-Aug-28 07:33N 37°56' E 023°37'0 0.0
2015-Aug-28 06:32N 37°56' E 023°37'0 0.0
2015-Aug-28 05:32N 37°56' E 023°37'0 0.0
2015-Aug-28 04:31N 37°56' E 023°37'0 0.3
2015-Aug-28 03:34N 37°56' E 023°37'7 6.6
2015-Aug-28 02:33N 37°50' E 023°40'1515.1
2015-Aug-28 01:33N 37°38' E 023°51'4611.4
2015-Aug-27 21:33N 37°32' E 024°48'1110.9
2015-Aug-27 20:33N 37°31' E 025°02'1010.2
2015-Aug-27 19:33N 37°28' E 025°14'4 3.9
2015-Aug-27 18:32N 37°28' E 025°19'0 0.0
2015-Aug-27 17:32N 37°28' E 025°19'0 0.0
2015-Aug-27 16:31N 37°28' E 025°19'0 0.0
2015-Aug-27 15:31N 37°28' E 025°19'0 0.0
2015-Aug-27 14:33N 37°28' E 025°19'0 0.0
2015-Aug-27 13:33N 37°28' E 025°19'0 0.0
2015-Aug-27 12:32N 37°28' E 025°19'0 0.0
2015-Aug-27 11:32N 37°28' E 025°19'0 0.0
2015-Aug-27 10:32N 37°28' E 025°19'0 0.0
2015-Aug-27 09:31N 37°28' E 025°19'0 0.0
2015-Aug-27 08:31N 37°28' E 025°19'0 0.0
2015-Aug-27 07:33N 37°28' E 025°19'0 0.0
2015-Aug-27 06:33N 37°28' E 025°19'0 0.0
2015-Aug-27 05:32N 37°28' E 025°19'0 0.0
2015-Aug-27 04:32N 37°28' E 025°19'0 0.0
2015-Aug-27 03:32N 37°28' E 025°19'3 3.2
2015-Aug-27 02:33N 37°31' E 025°19'1010.3
2015-Aug-27 01:33N 37°37' E 025°30'1010.2
2015-Aug-27 00:34N 37°42' E 025°41'  

Dump ship's entire track history